createdAt,value
2023-03-16T00:00:29.556Z,29.40
2023-03-16T00:01:29.061Z,32.20
2023-03-16T00:02:29.115Z,28.10
2023-03-16T00:03:29.075Z,29.10
2023-03-16T00:04:29.041Z,27.50
2023-03-16T00:05:29.018Z,30.50
2023-03-16T00:06:29.005Z,28.90
2023-03-16T00:07:29.003Z,34.10
2023-03-16T00:08:28.990Z,26.50
2023-03-16T00:09:28.995Z,27.50
2023-03-16T00:10:29.308Z,30.70
2023-03-16T00:11:28.965Z,27.80
2023-03-16T00:12:28.951Z,22.70
2023-03-16T00:13:28.945Z,25.00
2023-03-16T00:14:28.948Z,21.10
2023-03-16T00:15:28.931Z,21.60
2023-03-16T00:16:28.961Z,22.80
2023-03-16T00:17:28.930Z,24.30
2023-03-16T00:18:28.911Z,24.10
2023-03-16T00:19:28.931Z,24.30
2023-03-16T00:20:29.267Z,22.40
2023-03-16T00:21:28.876Z,24.10
2023-03-16T00:22:28.857Z,22.90
2023-03-16T00:23:28.986Z,21.70
2023-03-16T00:24:28.871Z,21.80
2023-03-16T00:25:28.840Z,23.10
2023-03-16T00:26:28.823Z,24.80
2023-03-16T00:27:28.820Z,20.40
2023-03-16T00:28:28.800Z,22.10
2023-03-16T00:29:28.824Z,21.10
2023-03-16T00:30:29.182Z,23.70
2023-03-16T00:31:28.822Z,22.40
2023-03-16T00:32:28.865Z,22.90
2023-03-16T00:33:28.768Z,24.10
2023-03-16T00:34:28.771Z,23.40
2023-03-16T00:35:28.740Z,21.70
2023-03-16T00:36:28.718Z,25.40
2023-03-16T00:37:28.801Z,21.10
2023-03-16T00:38:28.702Z,19.90
2023-03-16T00:39:28.720Z,19.90
2023-03-16T00:40:29.144Z,23.40
2023-03-16T00:41:28.679Z,23.00
2023-03-16T00:42:28.661Z,22.70
2023-03-16T00:43:28.654Z,21.20
2023-03-16T00:44:28.660Z,19.40
2023-03-16T00:45:28.649Z,19.50
2023-03-16T00:46:28.624Z,19.60
2023-03-16T00:47:28.643Z,22.30
2023-03-16T00:48:28.605Z,22.70
2023-03-16T00:49:28.682Z,18.60
2023-03-16T00:50:28.983Z,22.90
2023-03-16T00:51:28.584Z,21.50
2023-03-16T00:52:28.579Z,19.00
2023-03-16T00:53:28.572Z,20.90
2023-03-16T00:54:28.567Z,18.60
2023-03-16T00:55:28.539Z,20.30
2023-03-16T00:56:28.548Z,18.70
2023-03-16T00:57:28.521Z,18.80
2023-03-16T00:58:28.515Z,21.80
2023-03-16T00:59:28.506Z,18.10
2023-03-16T01:00:29.038Z,19.10
2023-03-16T01:01:28.523Z,20.10
2023-03-16T01:02:28.473Z,19.00
2023-03-16T01:03:28.517Z,21.20
2023-03-16T01:04:28.491Z,20.40
2023-03-16T01:05:28.446Z,17.90
2023-03-16T01:06:28.433Z,20.90
2023-03-16T01:07:28.430Z,19.50
2023-03-16T01:08:28.408Z,21.30
2023-03-16T01:09:28.437Z,21.60
2023-03-16T01:10:28.688Z,19.70
2023-03-16T01:11:28.388Z,22.00
2023-03-16T01:12:28.368Z,20.50
2023-03-16T01:13:28.360Z,20.70
2023-03-16T01:14:28.375Z,19.40
2023-03-16T01:15:28.344Z,20.00
2023-03-16T01:16:28.364Z,21.20
2023-03-16T01:17:28.325Z,18.00
2023-03-16T01:18:28.308Z,21.30
2023-03-16T01:19:28.317Z,19.30
2023-03-16T01:20:28.558Z,19.70
2023-03-16T01:21:28.291Z,19.80
2023-03-16T01:22:28.270Z,20.40
2023-03-16T01:23:28.262Z,20.70
2023-03-16T01:24:28.247Z,20.10
2023-03-16T01:25:28.242Z,22.20
2023-03-16T01:26:28.241Z,21.60
2023-03-16T01:27:28.224Z,23.10
2023-03-16T01:28:28.230Z,21.80
2023-03-16T01:29:28.205Z,23.00
2023-03-16T01:30:28.550Z,24.80
2023-03-16T01:31:28.206Z,22.20
2023-03-16T01:32:28.219Z,21.50
2023-03-16T01:33:28.165Z,24.00
2023-03-16T01:34:28.176Z,22.60
2023-03-16T01:35:28.167Z,22.20
2023-03-16T01:36:28.203Z,20.60
2023-03-16T01:37:28.130Z,19.10
2023-03-16T01:38:28.116Z,18.70
2023-03-16T01:39:28.111Z,21.40
2023-03-16T01:40:28.327Z,22.80
2023-03-16T01:41:28.111Z,21.50
2023-03-16T01:42:28.083Z,24.30
2023-03-16T01:43:28.073Z,21.70
2023-03-16T01:44:28.065Z,21.30
2023-03-16T01:45:28.051Z,21.20
2023-03-16T01:46:28.099Z,21.30
2023-03-16T01:47:28.056Z,20.30
2023-03-16T01:48:28.022Z,18.50
2023-03-16T01:49:28.022Z,19.10
2023-03-16T01:50:28.297Z,19.90
2023-03-16T01:51:28.037Z,18.50
2023-03-16T01:52:28.016Z,20.30
2023-03-16T01:53:27.978Z,19.80
2023-03-16T01:54:27.967Z,20.90
2023-03-16T01:55:27.958Z,23.40
2023-03-16T01:56:27.953Z,22.20
2023-03-16T01:57:28.000Z,22.00
2023-03-16T01:58:27.938Z,23.00
2023-03-16T01:59:27.922Z,22.70
2023-03-16T02:00:28.200Z,23.80
2023-03-16T02:01:27.989Z,22.70
2023-03-16T02:02:27.887Z,24.30
2023-03-16T02:03:27.896Z,24.80
2023-03-16T02:04:27.939Z,25.00
2023-03-16T02:05:27.891Z,23.80
2023-03-16T02:06:27.855Z,22.70
2023-03-16T02:07:27.851Z,22.10
2023-03-16T02:08:27.835Z,24.50
2023-03-16T02:09:27.834Z,24.70
2023-03-16T02:10:28.075Z,22.30
2023-03-16T02:11:27.815Z,23.80
2023-03-16T02:12:27.801Z,24.60
2023-03-16T02:13:27.797Z,21.70
2023-03-16T02:14:27.780Z,23.20
2023-03-16T02:15:27.892Z,21.90
2023-03-16T02:16:27.771Z,21.70
2023-03-16T02:17:27.763Z,22.70
2023-03-16T02:18:27.743Z,22.80
2023-03-16T02:19:33.764Z,21.70
2023-03-16T02:20:30.656Z,22.50
2023-03-16T02:21:28.640Z,24.60
2023-03-16T02:22:27.708Z,23.00
2023-03-16T02:23:27.766Z,22.40
2023-03-16T02:24:27.687Z,22.60
2023-03-16T02:25:27.701Z,22.20
2023-03-16T02:26:27.675Z,23.20
2023-03-16T02:27:27.667Z,22.40
2023-03-16T02:28:27.652Z,22.30
2023-03-16T02:29:27.648Z,24.00
2023-03-16T02:30:27.911Z,22.70
2023-03-16T02:31:27.718Z,20.90
2023-03-16T02:32:27.679Z,22.80
2023-03-16T02:33:27.608Z,23.70
2023-03-16T02:34:27.604Z,22.70
2023-03-16T02:35:27.614Z,25.20
2023-03-16T02:36:27.581Z,27.20
2023-03-16T02:37:27.606Z,30.00
2023-03-16T02:38:27.574Z,28.10
2023-03-16T02:39:27.557Z,27.40
2023-03-16T02:40:27.856Z,27.30
2023-03-16T02:41:27.527Z,27.00
2023-03-16T02:42:27.539Z,28.20
2023-03-16T02:43:27.535Z,27.50
2023-03-16T02:44:27.510Z,27.70
2023-03-16T02:45:27.509Z,31.70
2023-03-16T02:46:27.568Z,32.20
2023-03-16T02:47:27.478Z,29.30
2023-03-16T02:48:27.474Z,31.80
2023-03-16T02:49:27.463Z,31.90
2023-03-16T02:50:27.695Z,33.40
2023-03-16T02:51:27.441Z,35.20
2023-03-16T02:52:27.436Z,33.30
2023-03-16T02:53:27.421Z,34.10
2023-03-16T02:54:27.418Z,34.10
2023-03-16T02:55:27.425Z,35.30
2023-03-16T02:56:27.402Z,32.60
2023-03-16T02:57:27.407Z,32.60
2023-03-16T02:58:27.381Z,31.30
2023-03-16T02:59:27.373Z,29.20
2023-03-16T03:00:27.618Z,30.00
2023-03-16T03:01:27.365Z,29.90
2023-03-16T03:02:27.370Z,30.70
2023-03-16T03:03:27.404Z,30.50
2023-03-16T03:04:27.334Z,32.20
2023-03-16T03:05:27.325Z,29.20
2023-03-16T03:06:27.306Z,32.40
2023-03-16T03:07:27.291Z,34.00
2023-03-16T03:08:27.286Z,33.90
2023-03-16T03:09:27.275Z,31.80
2023-03-16T03:10:27.558Z,31.10
2023-03-16T03:11:27.257Z,32.30
2023-03-16T03:12:27.250Z,30.80
2023-03-16T03:13:27.252Z,31.10
2023-03-16T03:14:27.237Z,30.80
2023-03-16T03:15:27.237Z,32.40
2023-03-16T03:16:27.301Z,30.60
2023-03-16T03:17:27.198Z,32.90
2023-03-16T03:18:27.198Z,30.70
2023-03-16T03:19:27.185Z,28.70
2023-03-16T03:20:27.510Z,30.70
2023-03-16T03:21:27.167Z,31.20
2023-03-16T03:22:27.158Z,36.80
2023-03-16T03:23:27.148Z,32.90
2023-03-16T03:24:27.141Z,34.20
2023-03-16T03:25:27.143Z,34.60
2023-03-16T03:26:27.125Z,33.90
2023-03-16T03:27:27.173Z,31.60
2023-03-16T03:28:27.104Z,35.00
2023-03-16T03:29:27.089Z,30.70
2023-03-16T03:30:27.356Z,33.40
2023-03-16T03:31:27.088Z,31.10
2023-03-16T03:32:27.083Z,30.80
2023-03-16T03:33:27.071Z,31.90
2023-03-16T03:34:27.047Z,32.10
2023-03-16T03:35:27.058Z,30.10
2023-03-16T03:36:27.031Z,30.00
2023-03-16T03:37:27.020Z,31.10
2023-03-16T03:38:27.027Z,31.90
2023-03-16T03:39:27.001Z,28.10
2023-03-16T03:40:27.352Z,34.10
2023-03-16T03:41:26.981Z,30.90
2023-03-16T03:42:26.981Z,27.70
2023-03-16T03:43:26.986Z,28.50
2023-03-16T03:44:26.956Z,32.20
2023-03-16T03:45:27.036Z,30.20
2023-03-16T03:46:27.073Z,27.50
2023-03-16T03:47:26.928Z,27.50
2023-03-16T03:48:26.942Z,28.70
2023-03-16T03:49:26.911Z,27.00
2023-03-16T03:50:27.167Z,26.90
2023-03-16T03:51:26.893Z,29.10
2023-03-16T03:52:26.897Z,29.30
2023-03-16T03:53:26.907Z,27.80
2023-03-16T03:54:26.879Z,29.60
2023-03-16T03:55:26.873Z,30.30
2023-03-16T03:56:26.849Z,27.60
2023-03-16T03:57:26.834Z,30.00
2023-03-16T03:58:26.833Z,33.00
2023-03-16T03:59:26.815Z,31.80
2023-03-16T04:00:27.129Z,33.70
2023-03-16T04:01:26.799Z,36.20
2023-03-16T04:02:27.021Z,32.40
2023-03-16T04:03:26.829Z,35.70
2023-03-16T04:04:26.780Z,37.00
2023-03-16T04:05:26.780Z,35.80
2023-03-16T04:06:26.773Z,32.90
2023-03-16T04:07:26.744Z,34.30
2023-03-16T04:08:26.753Z,35.50
2023-03-16T04:09:26.734Z,35.20
2023-03-16T04:10:27.093Z,33.00
2023-03-16T04:11:26.708Z,36.80
2023-03-16T04:12:26.702Z,36.30
2023-03-16T04:13:26.691Z,37.50
2023-03-16T04:14:26.700Z,36.80
2023-03-16T04:15:26.681Z,37.80
2023-03-16T04:16:26.721Z,43.80
2023-03-16T04:17:26.660Z,39.80
2023-03-16T04:18:26.647Z,38.00
2023-03-16T04:19:26.631Z,34.20
2023-03-16T04:20:27.089Z,33.80
2023-03-16T04:21:26.612Z,31.90
2023-03-16T04:22:26.611Z,33.40
2023-03-16T04:23:26.598Z,31.90
2023-03-16T04:24:26.600Z,34.90
2023-03-16T04:25:26.608Z,33.10
2023-03-16T04:26:26.571Z,35.00
2023-03-16T04:27:26.558Z,33.70
2023-03-16T04:28:26.587Z,39.20
2023-03-16T04:29:26.543Z,33.80
2023-03-16T04:30:26.902Z,32.30
2023-03-16T04:31:26.535Z,32.50
2023-03-16T04:32:26.607Z,29.00
2023-03-16T04:33:26.507Z,32.00
2023-03-16T04:34:26.501Z,32.10
2023-03-16T04:35:26.487Z,31.70
2023-03-16T04:36:26.500Z,28.60
2023-03-16T04:37:26.466Z,31.20
2023-03-16T04:38:26.464Z,27.60
2023-03-16T04:39:26.449Z,27.80
2023-03-16T04:40:26.846Z,29.30
2023-03-16T04:41:26.446Z,29.80
2023-03-16T04:42:26.425Z,28.70
2023-03-16T04:43:26.410Z,26.30
2023-03-16T04:44:26.417Z,26.90
2023-03-16T04:45:26.398Z,27.20
2023-03-16T04:46:26.450Z,24.70
2023-03-16T04:47:26.378Z,28.30
2023-03-16T04:48:26.373Z,29.30
2023-03-16T04:49:26.362Z,31.90
2023-03-16T04:50:26.543Z,30.40
2023-03-16T04:51:26.361Z,29.80
2023-03-16T04:52:26.339Z,30.40
2023-03-16T04:53:26.323Z,27.60
2023-03-16T04:54:26.263Z,28.70
2023-03-16T04:55:26.551Z,26.30
2023-03-16T04:56:26.312Z,24.60
2023-03-16T04:57:26.296Z,26.60
2023-03-16T04:58:26.240Z,26.00
2023-03-16T04:59:26.218Z,23.80
2023-03-16T05:00:26.637Z,26.70
2023-03-16T05:01:26.324Z,23.20
2023-03-16T05:02:26.257Z,23.80
2023-03-16T05:03:26.188Z,22.90
2023-03-16T05:04:26.185Z,23.50
2023-03-16T05:05:26.219Z,22.30
2023-03-16T05:06:26.157Z,22.40
2023-03-16T05:07:26.139Z,22.90
2023-03-16T05:08:26.135Z,20.90
2023-03-16T05:09:26.196Z,22.10
2023-03-16T05:10:26.515Z,22.60
2023-03-16T05:11:26.113Z,20.90
2023-03-16T05:12:26.100Z,20.40
2023-03-16T05:13:26.088Z,21.30
2023-03-16T05:14:26.079Z,18.50
2023-03-16T05:15:26.063Z,18.70
2023-03-16T05:16:26.201Z,22.90
2023-03-16T05:17:26.044Z,21.90
2023-03-16T05:18:26.036Z,19.90
2023-03-16T05:19:26.019Z,21.50
2023-03-16T05:20:26.091Z,21.80
2023-03-16T05:21:26.019Z,22.20
2023-03-16T05:22:25.994Z,24.20
2023-03-16T05:23:25.982Z,26.30
2023-03-16T05:24:25.978Z,26.50
2023-03-16T05:25:25.964Z,28.70
2023-03-16T05:26:25.975Z,24.70
2023-03-16T05:27:25.944Z,25.20
2023-03-16T05:28:25.939Z,24.10
2023-03-16T05:29:25.928Z,27.30
2023-03-16T05:30:26.451Z,24.90
2023-03-16T05:31:25.972Z,27.00
2023-03-16T05:32:25.934Z,25.20
2023-03-16T05:33:25.884Z,25.80
2023-03-16T05:34:25.875Z,23.90
2023-03-16T05:35:25.877Z,24.30
2023-03-16T05:36:25.861Z,23.60
2023-03-16T05:37:25.842Z,24.70
2023-03-16T05:38:25.838Z,23.80
2023-03-16T05:39:25.835Z,22.70
2023-03-16T05:40:26.144Z,24.10
2023-03-16T05:41:25.802Z,24.10
2023-03-16T05:42:25.798Z,21.60
2023-03-16T05:43:25.785Z,22.20
2023-03-16T05:44:25.781Z,23.30
2023-03-16T05:45:25.788Z,22.60
2023-03-16T05:46:25.893Z,20.60
2023-03-16T05:47:25.752Z,25.00
2023-03-16T05:48:25.753Z,22.00
2023-03-16T05:49:25.756Z,21.50
2023-03-16T05:50:26.216Z,22.90
2023-03-16T05:51:25.731Z,20.20
2023-03-16T05:52:25.709Z,21.30
2023-03-16T05:53:25.689Z,22.60
2023-03-16T05:54:25.690Z,20.40
2023-03-16T05:55:25.688Z,22.70
2023-03-16T05:56:25.669Z,22.20
2023-03-16T05:57:25.676Z,21.50
2023-03-16T05:58:25.649Z,23.90
2023-03-16T05:59:25.634Z,21.50
2023-03-16T06:00:25.721Z,21.90
2023-03-16T06:01:25.638Z,22.70
2023-03-16T06:02:25.646Z,20.60
2023-03-16T06:03:25.596Z,20.90
2023-03-16T06:04:25.667Z,20.00
2023-03-16T06:05:25.580Z,19.10
2023-03-16T06:06:25.589Z,19.80
2023-03-16T06:07:27.475Z,20.30
2023-03-16T06:08:25.552Z,20.00
2023-03-16T06:09:25.538Z,20.80
2023-03-16T06:10:25.726Z,20.70
2023-03-16T06:11:25.534Z,21.00
2023-03-16T06:12:25.515Z,23.20
2023-03-16T06:13:25.496Z,21.00
2023-03-16T06:14:25.493Z,19.20
2023-03-16T06:15:25.481Z,20.00
2023-03-16T06:16:25.695Z,19.10
2023-03-16T06:17:25.459Z,20.40
2023-03-16T06:18:25.451Z,21.10
2023-03-16T06:19:25.445Z,19.30
2023-03-16T06:20:25.437Z,17.60
2023-03-16T06:21:25.431Z,17.90
2023-03-16T06:22:25.502Z,20.40
2023-03-16T06:23:25.400Z,21.90
2023-03-16T06:24:25.397Z,18.00
2023-03-16T06:25:25.381Z,22.00
2023-03-16T06:26:25.408Z,20.80
2023-03-16T06:27:25.365Z,17.40
2023-03-16T06:28:25.355Z,18.60
2023-03-16T06:29:25.344Z,19.60
2023-03-16T06:30:25.516Z,17.60
2023-03-16T06:31:25.352Z,19.60
2023-03-16T06:32:25.357Z,18.80
2023-03-16T06:33:25.311Z,21.20
2023-03-16T06:34:25.294Z,19.70
2023-03-16T06:35:25.315Z,19.50
2023-03-16T06:36:25.283Z,21.30
2023-03-16T06:37:25.261Z,19.10
2023-03-16T06:38:25.254Z,19.60
2023-03-16T06:39:25.241Z,21.00
2023-03-16T06:40:25.304Z,21.50
2023-03-16T06:41:25.242Z,21.50
2023-03-16T06:42:25.217Z,22.60
2023-03-16T06:43:25.198Z,21.90
2023-03-16T06:44:25.201Z,23.10
2023-03-16T06:45:25.180Z,18.20
2023-03-16T06:46:25.259Z,21.70
2023-03-16T06:47:25.168Z,20.90
2023-03-16T06:48:25.156Z,21.70
2023-03-16T06:49:25.141Z,27.40
2023-03-16T06:50:25.133Z,22.80
2023-03-16T06:51:25.144Z,23.20
2023-03-16T06:52:25.114Z,20.00
2023-03-16T06:53:25.110Z,22.70
2023-03-16T06:54:25.094Z,21.80
2023-03-16T06:55:25.092Z,21.60
2023-03-16T06:56:25.088Z,24.40
2023-03-16T06:57:25.072Z,22.10
2023-03-16T06:58:25.056Z,19.70
2023-03-16T06:59:25.045Z,21.00
2023-03-16T07:00:25.040Z,22.60
2023-03-16T07:01:25.152Z,20.30
2023-03-16T07:02:25.015Z,22.00
2023-03-16T07:03:25.014Z,22.70
2023-03-16T07:04:25.102Z,20.50
2023-03-16T07:05:24.986Z,22.00
2023-03-16T07:06:24.997Z,18.90
2023-03-16T07:07:24.975Z,20.60
2023-03-16T07:08:24.954Z,21.20
2023-03-16T07:09:24.946Z,20.50
2023-03-16T07:10:24.946Z,17.30
2023-03-16T07:11:24.962Z,21.60
2023-03-16T07:12:24.913Z,22.00
2023-03-16T07:13:24.912Z,19.40
2023-03-16T07:14:24.903Z,19.00
2023-03-16T07:15:24.892Z,19.20
2023-03-16T07:16:24.916Z,22.00
2023-03-16T07:17:24.877Z,19.20
2023-03-16T07:18:24.855Z,20.00
2023-03-16T07:19:24.844Z,19.60
2023-03-16T07:20:24.830Z,20.90
2023-03-16T07:21:24.851Z,19.30
2023-03-16T07:22:24.817Z,22.30
2023-03-16T07:23:24.815Z,20.50
2023-03-16T07:24:24.793Z,19.50
2023-03-16T07:25:24.785Z,20.10
2023-03-16T07:26:24.791Z,21.80
2023-03-16T07:27:24.772Z,17.40
2023-03-16T07:28:24.750Z,19.40
2023-03-16T07:29:24.747Z,18.30
2023-03-16T07:30:24.729Z,18.90
2023-03-16T07:31:24.839Z,18.90
2023-03-16T07:32:24.762Z,19.70
2023-03-16T07:33:24.708Z,18.90
2023-03-16T07:34:24.691Z,18.50
2023-03-16T07:35:24.688Z,18.70
2023-03-16T07:36:24.685Z,17.80
2023-03-16T07:37:25.720Z,17.50
2023-03-16T07:38:24.651Z,18.60
2023-03-16T07:39:24.647Z,18.00
2023-03-16T07:40:24.638Z,21.30
2023-03-16T07:41:24.627Z,18.90
2023-03-16T07:42:24.662Z,18.60
2023-03-16T07:43:24.609Z,17.60
2023-03-16T07:44:24.591Z,15.50
2023-03-16T07:45:24.587Z,17.10
2023-03-16T07:46:24.721Z,16.20
2023-03-16T07:47:26.383Z,16.00
2023-03-16T07:48:24.559Z,15.90
2023-03-16T07:49:24.544Z,17.00
2023-03-16T07:50:24.529Z,16.00
2023-03-16T07:51:24.545Z,15.60
2023-03-16T07:52:24.512Z,17.20
2023-03-16T07:53:24.512Z,14.80
2023-03-16T07:54:24.486Z,15.00
2023-03-16T07:55:24.487Z,17.00
2023-03-16T07:56:24.480Z,17.20
2023-03-16T07:57:24.467Z,14.90
2023-03-16T07:58:24.450Z,15.00
2023-03-16T07:59:24.442Z,14.30
2023-03-16T08:00:24.424Z,15.80
2023-03-16T08:01:24.436Z,15.50
2023-03-16T08:02:24.476Z,15.70
2023-03-16T08:03:24.411Z,14.60
2023-03-16T08:04:24.384Z,14.30
2023-03-16T08:05:26.026Z,14.70
2023-03-16T08:06:24.379Z,15.70
2023-03-16T08:07:24.359Z,17.00
2023-03-16T08:08:24.344Z,14.00
2023-03-16T08:09:24.338Z,16.10
2023-03-16T08:10:24.333Z,16.20
2023-03-16T08:11:24.334Z,13.50
2023-03-16T08:12:24.385Z,14.60
2023-03-16T08:13:24.300Z,13.10
2023-03-16T08:14:24.282Z,14.80
2023-03-16T08:15:24.282Z,14.50
2023-03-16T08:16:24.313Z,15.70
2023-03-16T08:17:24.278Z,14.80
2023-03-16T08:18:24.244Z,14.30
2023-03-16T08:19:24.242Z,14.70
2023-03-16T08:20:24.226Z,16.70
2023-03-16T08:21:24.233Z,14.30
2023-03-16T08:22:24.279Z,15.80
2023-03-16T08:23:24.210Z,14.80
2023-03-16T08:24:24.199Z,14.90
2023-03-16T08:25:24.180Z,15.20
2023-03-16T08:26:24.176Z,14.10
2023-03-16T08:27:24.207Z,14.00
2023-03-16T08:28:24.148Z,15.40
2023-03-16T08:29:24.142Z,14.50
2023-03-16T08:30:24.126Z,15.20
2023-03-16T08:31:24.174Z,14.50
2023-03-16T08:32:24.138Z,15.70
2023-03-16T08:33:24.111Z,16.70
2023-03-16T08:34:24.093Z,14.20
2023-03-16T08:35:24.085Z,16.70
2023-03-16T08:36:24.065Z,17.70
2023-03-16T08:37:24.083Z,14.70
2023-03-16T08:38:24.065Z,13.70
2023-03-16T08:39:24.045Z,14.90
2023-03-16T08:40:24.027Z,15.00
2023-03-16T08:41:24.027Z,14.80
2023-03-16T08:42:24.044Z,14.10
2023-03-16T08:43:24.029Z,14.60
2023-03-16T08:44:23.991Z,13.20
2023-03-16T08:45:24.011Z,13.50
2023-03-16T08:46:23.999Z,13.10
2023-03-16T08:47:23.977Z,13.20
2023-03-16T08:48:23.947Z,12.70
2023-03-16T08:49:23.944Z,14.00
2023-03-16T08:50:31.075Z,13.60
2023-03-16T08:51:23.914Z,13.40
2023-03-16T08:52:23.952Z,12.70
2023-03-16T08:53:23.896Z,13.00
2023-03-16T08:54:23.890Z,12.10
2023-03-16T08:55:23.874Z,11.20
2023-03-16T08:56:23.861Z,11.50
2023-03-16T08:57:23.889Z,12.90
2023-03-16T08:58:23.841Z,14.00
2023-03-16T08:59:30.159Z,14.50
2023-03-16T09:00:23.825Z,11.60
2023-03-16T09:01:23.835Z,10.60
2023-03-16T09:02:23.831Z,11.70
2023-03-16T09:03:23.798Z,13.50
2023-03-16T09:04:23.927Z,13.30
2023-03-16T09:05:23.774Z,10.40
2023-03-16T09:06:23.759Z,11.80
2023-03-16T09:07:23.781Z,13.40
2023-03-16T09:08:23.738Z,11.60
2023-03-16T09:09:23.733Z,11.20
2023-03-16T09:10:23.718Z,11.00
2023-03-16T09:11:23.710Z,10.90
2023-03-16T09:12:23.751Z,10.90
2023-03-16T09:13:23.691Z,10.70
2023-03-16T09:14:23.672Z,10.50
2023-03-16T09:15:23.671Z,9.50
2023-03-16T09:16:23.743Z,10.50
2023-03-16T09:17:23.664Z,10.10
2023-03-16T09:18:23.632Z,10.70
2023-03-16T09:19:23.738Z,9.90
2023-03-16T09:20:26.910Z,10.50
2023-03-16T09:21:23.623Z,9.80
2023-03-16T09:22:23.618Z,10.70
2023-03-16T09:23:23.592Z,10.00
2023-03-16T09:24:23.570Z,11.10
2023-03-16T09:25:23.597Z,11.10
2023-03-16T09:26:23.597Z,10.40
2023-03-16T09:27:23.668Z,10.40
2023-03-16T09:28:23.525Z,11.00
2023-03-16T09:29:23.523Z,9.80
2023-03-16T09:30:23.517Z,10.30
2023-03-16T09:31:23.559Z,11.10
2023-03-16T09:32:23.532Z,9.50
2023-03-16T09:33:23.482Z,10.20
2023-03-16T09:35:23.460Z,10.50
2023-03-16T09:36:23.444Z,11.30
2023-03-16T09:37:23.495Z,9.80
2023-03-16T09:38:23.430Z,9.80
2023-03-16T09:39:23.427Z,11.40
2023-03-16T09:40:23.510Z,10.50
2023-03-16T09:41:23.399Z,10.10
2023-03-16T09:42:23.403Z,10.70
2023-03-16T09:43:23.380Z,10.30
2023-03-16T09:44:23.375Z,10.50
2023-03-16T09:45:23.355Z,9.50
2023-03-16T09:46:23.377Z,11.40
2023-03-16T09:47:23.358Z,9.90
2023-03-16T09:48:23.335Z,10.10
2023-03-16T09:49:23.315Z,10.20
2023-03-16T09:50:24.402Z,9.80
2023-03-16T09:51:23.379Z,9.00
2023-03-16T09:52:23.298Z,11.40
2023-03-16T09:53:23.308Z,10.60
2023-03-16T09:54:23.258Z,10.40
2023-03-16T09:55:23.268Z,11.10
2023-03-16T09:56:23.237Z,11.80
2023-03-16T09:57:23.236Z,10.40
2023-03-16T09:58:23.241Z,11.30
2023-03-16T09:59:23.213Z,11.00
2023-03-16T10:00:23.254Z,10.10
2023-03-16T10:01:23.249Z,10.60
2023-03-16T10:02:23.210Z,10.50
2023-03-16T10:03:23.200Z,10.80
2023-03-16T10:04:23.235Z,9.40
2023-03-16T10:05:23.151Z,10.90
2023-03-16T10:06:23.133Z,13.00
2023-03-16T10:07:23.129Z,10.90
2023-03-16T10:08:23.132Z,9.40
2023-03-16T10:09:23.119Z,10.10
2023-03-16T10:10:23.133Z,9.90
2023-03-16T10:11:23.096Z,10.70
2023-03-16T10:12:23.074Z,11.60
2023-03-16T10:13:23.070Z,8.70
2023-03-16T10:14:23.076Z,10.60
2023-03-16T10:15:23.049Z,10.70
2023-03-16T10:16:23.106Z,10.30
2023-03-16T10:17:23.129Z,10.50
2023-03-16T10:18:23.025Z,9.90
2023-03-16T10:19:23.009Z,10.60
2023-03-16T10:20:23.107Z,9.60
2023-03-16T10:21:22.995Z,10.20
2023-03-16T10:22:22.970Z,10.10
2023-03-16T10:23:23.003Z,10.70
2023-03-16T10:24:22.956Z,10.20
2023-03-16T10:25:22.944Z,9.90
2023-03-16T10:26:22.957Z,10.50
2023-03-16T10:27:22.948Z,10.10
2023-03-16T10:28:22.920Z,10.80
2023-03-16T10:29:22.929Z,9.50
2023-03-16T10:30:22.892Z,10.30
2023-03-16T10:31:23.078Z,11.10
2023-03-16T10:32:22.866Z,10.30
2023-03-16T10:33:22.857Z,10.70
2023-03-16T10:34:22.841Z,12.10
2023-03-16T10:35:22.856Z,9.20
2023-03-16T10:36:22.839Z,10.50
2023-03-16T10:37:22.817Z,10.30
2023-03-16T10:38:22.807Z,10.10
2023-03-16T10:39:22.799Z,10.40
2023-03-16T10:40:22.797Z,10.90
2023-03-16T10:41:23.013Z,10.70
2023-03-16T10:42:22.758Z,11.30
2023-03-16T10:43:22.760Z,11.30
2023-03-16T10:44:22.748Z,10.40
2023-03-16T10:45:22.757Z,10.00
2023-03-16T10:46:22.862Z,10.40
2023-03-16T10:47:22.772Z,9.50
2023-03-16T10:48:22.708Z,11.50
2023-03-16T10:49:22.717Z,10.60
2023-03-16T10:50:22.728Z,10.90
2023-03-16T10:51:22.688Z,10.70
2023-03-16T10:52:22.665Z,10.60
2023-03-16T10:53:22.666Z,10.00
2023-03-16T10:54:22.656Z,9.10
2023-03-16T10:55:22.685Z,10.70
2023-03-16T10:56:22.677Z,10.20
2023-03-16T10:57:22.643Z,9.80
2023-03-16T10:58:22.643Z,9.20
2023-03-16T10:59:22.623Z,10.30
2023-03-16T11:00:22.610Z,10.00
2023-03-16T11:01:22.623Z,9.00
2023-03-16T11:02:22.573Z,9.90
2023-03-16T11:03:22.590Z,9.20
2023-03-16T11:04:22.560Z,10.40
2023-03-16T11:05:22.537Z,9.40
2023-03-16T11:06:22.535Z,10.60
2023-03-16T11:07:22.514Z,9.50
2023-03-16T11:08:22.576Z,9.50
2023-03-16T11:09:22.589Z,9.20
2023-03-16T11:10:22.538Z,8.90
2023-03-16T11:11:22.504Z,9.90
2023-03-16T11:12:22.478Z,10.50
2023-03-16T11:13:22.560Z,10.50
2023-03-16T11:14:22.454Z,9.00
2023-03-16T11:15:26.487Z,10.30
2023-03-16T11:16:22.443Z,10.10
2023-03-16T11:17:22.422Z,14.10
2023-03-16T11:18:22.420Z,11.10
2023-03-16T11:19:22.393Z,8.50
2023-03-16T11:20:22.394Z,10.30
2023-03-16T11:21:22.377Z,8.70
2023-03-16T11:22:22.372Z,9.10
2023-03-16T11:23:22.407Z,8.70
2023-03-16T11:24:22.340Z,9.20
2023-03-16T11:25:22.330Z,8.20
2023-03-16T11:26:22.323Z,9.50
2023-03-16T11:27:22.307Z,8.60
2023-03-16T11:28:22.342Z,9.40
2023-03-16T11:29:22.285Z,8.90
2023-03-16T11:30:22.287Z,8.70
2023-03-16T11:31:22.345Z,8.60
2023-03-16T11:32:22.265Z,10.10
2023-03-16T11:33:22.282Z,9.30
2023-03-16T11:34:22.245Z,10.10
2023-03-16T11:35:22.224Z,9.00
2023-03-16T11:36:22.271Z,9.60
2023-03-16T11:37:22.211Z,9.40
2023-03-16T11:38:22.216Z,9.60
2023-03-16T11:39:22.210Z,10.50
2023-03-16T11:40:22.177Z,8.90
2023-03-16T11:41:22.160Z,9.60
2023-03-16T11:42:22.153Z,10.50
2023-03-16T11:43:22.157Z,10.90
2023-03-16T11:44:22.138Z,8.10
2023-03-16T11:45:22.118Z,9.00
2023-03-16T11:46:22.170Z,8.50
2023-03-16T11:47:22.104Z,9.60
2023-03-16T11:48:22.169Z,9.30
2023-03-16T11:49:22.086Z,8.80
2023-03-16T11:50:22.075Z,9.00
2023-03-16T11:51:22.060Z,10.00
2023-03-16T11:52:22.070Z,9.10
2023-03-16T11:53:22.070Z,9.00
2023-03-16T11:54:22.036Z,9.70
2023-03-16T11:55:22.012Z,9.90
2023-03-16T11:56:21.999Z,10.50
2023-03-16T11:57:21.986Z,7.90
2023-03-16T11:58:22.074Z,8.90
2023-03-16T11:59:21.968Z,9.60
2023-03-16T12:00:21.957Z,10.80
2023-03-16T12:01:22.016Z,9.40
2023-03-16T12:02:22.165Z,9.60
2023-03-16T12:03:22.001Z,8.70
2023-03-16T12:04:22.033Z,10.60
2023-03-16T12:05:21.911Z,12.90
2023-03-16T12:06:23.464Z,9.00
2023-03-16T12:07:21.922Z,8.00
2023-03-16T12:08:21.909Z,8.80
2023-03-16T12:09:21.855Z,9.40
2023-03-16T12:10:21.858Z,10.10
2023-03-16T12:11:21.836Z,8.40
2023-03-16T12:12:21.827Z,7.80
2023-03-16T12:13:21.821Z,9.60
2023-03-16T12:14:21.873Z,9.20
2023-03-16T12:15:21.801Z,8.40
2023-03-16T12:16:21.873Z,10.00
2023-03-16T12:17:21.770Z,10.00
2023-03-16T12:18:21.808Z,9.10
2023-03-16T12:19:21.761Z,9.90
2023-03-16T12:20:21.744Z,8.10
2023-03-16T12:21:21.730Z,8.90
2023-03-16T12:22:21.762Z,10.10
2023-03-16T12:23:21.711Z,8.80
2023-03-16T12:24:21.852Z,9.00
2023-03-16T12:25:21.682Z,9.10
2023-03-16T12:26:21.683Z,11.40
2023-03-16T12:27:21.669Z,8.20
2023-03-16T12:28:21.660Z,10.10
2023-03-16T12:29:21.681Z,9.90
2023-03-16T12:30:21.639Z,10.20
2023-03-16T12:31:21.712Z,9.60
2023-03-16T12:32:21.625Z,9.10
2023-03-16T12:33:21.605Z,9.30
2023-03-16T12:34:21.685Z,8.60
2023-03-16T12:35:21.579Z,8.90
2023-03-16T12:36:21.582Z,10.10
2023-03-16T12:37:21.575Z,9.20
2023-03-16T12:38:21.568Z,10.00
2023-03-16T12:39:21.556Z,9.70
2023-03-16T12:40:21.535Z,9.40
2023-03-16T12:41:21.526Z,8.20
2023-03-16T12:42:21.517Z,9.30
2023-03-16T12:43:21.528Z,8.10
2023-03-16T12:44:21.560Z,8.10
2023-03-16T12:45:21.479Z,8.60
2023-03-16T12:46:21.520Z,8.90
2023-03-16T12:47:21.458Z,8.70
2023-03-16T12:48:21.467Z,9.30
2023-03-16T12:49:21.454Z,9.20
2023-03-16T12:50:21.439Z,8.10
2023-03-16T12:51:21.420Z,9.20
2023-03-16T12:52:21.411Z,9.10
2023-03-16T12:53:21.418Z,10.90
2023-03-16T12:54:21.434Z,9.20
2023-03-16T12:55:21.383Z,9.00
2023-03-16T12:56:21.395Z,10.00
2023-03-16T12:57:21.358Z,9.80